createdAt,value
2023-08-18T00:02:17.282Z,3.40
2023-08-18T00:07:24.375Z,3.70
2023-08-18T00:12:31.687Z,3.00
2023-08-18T00:22:45.192Z,4.00
2023-08-18T00:27:55.646Z,2.90
2023-08-18T00:33:03.172Z,3.20
2023-08-18T00:38:10.348Z,2.90
2023-08-18T00:43:17.402Z,2.80
2023-08-18T00:48:25.561Z,2.90
2023-08-18T00:53:34.080Z,3.70
2023-08-18T00:58:41.723Z,2.90
2023-08-18T01:03:49.114Z,2.70
2023-08-18T01:14:12.628Z,2.80
2023-08-18T01:19:22.903Z,3.40
2023-08-18T01:24:30.429Z,4.00
2023-08-18T01:34:45.742Z,3.70
2023-08-18T01:39:53.627Z,3.50
2023-08-18T01:45:05.466Z,3.50
2023-08-18T01:50:13.288Z,3.30
2023-08-18T01:55:20.338Z,4.20
2023-08-18T02:00:27.398Z,3.70
2023-08-18T02:05:34.561Z,3.30
2023-08-18T02:10:44.323Z,3.80
2023-08-18T02:15:51.397Z,3.60
2023-08-18T02:21:03.506Z,3.50
2023-08-18T02:26:10.666Z,4.20
2023-08-18T02:31:17.735Z,3.20
2023-08-18T02:36:25.362Z,3.50
2023-08-18T02:41:32.504Z,4.40
2023-08-18T02:46:40.843Z,3.50
2023-08-18T02:51:49.646Z,3.80
2023-08-18T02:56:56.720Z,3.30
2023-08-18T03:02:04.319Z,3.30
2023-08-18T03:07:11.396Z,3.60
2023-08-18T03:12:18.513Z,4.40
2023-08-18T03:17:26.654Z,3.80
2023-08-18T03:22:35.923Z,4.00
2023-08-18T03:27:43.727Z,5.60
2023-08-18T03:32:53.202Z,3.60
2023-08-18T03:38:00.491Z,3.60
2023-08-18T03:43:07.929Z,3.70
2023-08-18T03:53:23.335Z,4.50
2023-08-18T03:58:30.480Z,4.80
2023-08-18T04:03:39.547Z,4.70
2023-08-18T04:08:47.358Z,4.30
2023-08-18T04:13:55.509Z,3.90
2023-08-18T04:19:04.775Z,3.50
2023-08-18T04:24:13.822Z,3.80
2023-08-18T04:29:21.418Z,4.30
2023-08-18T04:34:31.440Z,4.70
2023-08-18T04:39:38.780Z,4.50
2023-08-18T04:44:46.714Z,4.70
2023-08-18T04:49:53.903Z,4.20
2023-08-18T04:55:01.078Z,4.40
2023-08-18T05:00:10.518Z,4.40
2023-08-18T05:05:17.816Z,4.90
2023-08-18T05:10:24.804Z,4.70
2023-08-18T05:15:31.956Z,5.10
2023-08-18T05:20:39.341Z,4.30
2023-08-18T05:25:49.270Z,4.50
2023-08-18T05:30:56.819Z,5.40
2023-08-18T05:36:07.059Z,5.30
2023-08-18T05:41:16.090Z,4.80
2023-08-18T05:46:23.221Z,5.80
2023-08-18T05:56:35.684Z,5.10
2023-08-18T06:01:43.162Z,6.30
2023-08-18T06:06:50.301Z,6.20
2023-08-18T06:17:02.981Z,6.40
2023-08-18T06:27:15.478Z,6.50
2023-08-18T06:32:22.620Z,7.20
2023-08-18T06:42:35.384Z,7.80
2023-08-18T06:47:42.451Z,5.70
2023-08-18T06:52:49.523Z,5.70
2023-08-18T06:57:56.556Z,5.40
2023-08-18T07:03:20.913Z,5.90
2023-08-18T07:08:43.534Z,5.80
2023-08-18T07:13:50.654Z,6.90
2023-08-18T07:18:57.913Z,5.60
2023-08-18T07:24:05.331Z,7.30
2023-08-18T07:29:12.400Z,5.80
2023-08-18T07:34:19.518Z,6.20
2023-08-18T07:39:27.258Z,7.70
2023-08-18T07:44:34.324Z,6.50
2023-08-18T07:49:41.510Z,6.30
2023-08-18T07:54:48.788Z,5.70
2023-08-18T07:59:55.935Z,6.20
2023-08-18T08:05:06.917Z,6.40
2023-08-18T08:10:14.653Z,5.70
2023-08-18T08:15:21.807Z,5.80
2023-08-18T08:20:30.705Z,5.60
2023-08-18T08:25:39.621Z,5.90
2023-08-18T08:30:47.132Z,6.00
2023-08-18T08:35:54.665Z,5.30
2023-08-18T08:41:03.305Z,5.50
2023-08-18T08:46:15.757Z,6.40
2023-08-18T08:51:28.330Z,5.90
2023-08-18T08:56:37.436Z,5.60
2023-08-18T09:01:45.071Z,5.00
2023-08-18T09:06:52.677Z,6.00
2023-08-18T09:12:07.244Z,5.60
2023-08-18T09:17:14.464Z,5.00
2023-08-18T09:22:24.702Z,4.40
2023-08-18T09:27:33.440Z,3.70
2023-08-18T09:32:42.427Z,3.90
2023-08-18T09:37:55.910Z,4.30
2023-08-18T09:43:06.874Z,4.10
2023-08-18T09:48:17.144Z,3.80
2023-08-18T09:53:29.323Z,4.60
2023-08-18T09:58:49.269Z,4.60
2023-08-18T10:03:57.569Z,4.30
2023-08-18T10:09:05.686Z,4.30
2023-08-18T10:14:12.975Z,4.60
2023-08-18T10:19:40.014Z,3.90
2023-08-18T10:24:49.686Z,3.80
2023-08-18T10:29:58.791Z,3.60
2023-08-18T10:35:25.709Z,3.60
2023-08-18T10:45:39.739Z,3.40
2023-08-18T10:50:48.340Z,3.50
2023-08-18T10:55:56.099Z,5.20
2023-08-18T11:01:04.910Z,4.10
2023-08-18T11:06:12.147Z,4.20
2023-08-18T11:11:22.150Z,4.50
2023-08-18T11:16:29.256Z,4.70
2023-08-18T11:21:37.848Z,4.70
2023-08-18T11:26:45.412Z,4.50
2023-08-18T11:31:52.447Z,4.40
2023-08-18T11:37:06.431Z,4.70
2023-08-18T11:42:14.431Z,3.50
2023-08-18T11:47:24.749Z,4.20
2023-08-18T11:52:42.403Z,4.30
2023-08-18T11:57:49.608Z,4.90
2023-08-18T12:02:56.758Z,4.50
2023-08-18T12:08:10.759Z,4.10
2023-08-18T12:13:18.355Z,4.80
2023-08-18T12:18:25.675Z,4.70
2023-08-18T12:23:33.237Z,4.50
2023-08-18T12:28:40.370Z,4.30
2023-08-18T12:33:47.504Z,4.60
2023-08-18T12:38:54.554Z,4.50
2023-08-18T12:44:01.585Z,4.20
2023-08-18T12:49:09.488Z,5.00
2023-08-18T12:54:16.863Z,4.40
2023-08-18T12:59:25.130Z,5.50
2023-08-18T13:04:32.520Z,5.20
2023-08-18T13:09:40.122Z,5.00
2023-08-18T13:14:47.652Z,4.10
2023-08-18T13:19:57.797Z,4.80
2023-08-18T13:25:13.036Z,4.60
2023-08-18T13:30:20.505Z,4.90
2023-08-18T13:35:27.856Z,4.90
2023-08-18T13:40:34.926Z,4.30
2023-08-18T13:45:42.091Z,4.40
2023-08-18T13:50:49.165Z,5.30
2023-08-18T13:55:56.384Z,5.00
2023-08-18T14:01:05.470Z,4.60
2023-08-18T14:06:12.574Z,4.90
2023-08-18T14:11:19.660Z,5.20
2023-08-18T14:16:29.101Z,4.40
2023-08-18T14:21:37.887Z,4.30
2023-08-18T14:26:45.017Z,4.30
2023-08-18T14:31:52.069Z,3.90
2023-08-18T14:36:59.380Z,4.10
2023-08-18T14:42:07.120Z,4.20
2023-08-18T14:47:14.314Z,4.50
2023-08-18T14:52:21.880Z,4.10
2023-08-18T14:57:28.888Z,3.90
2023-08-18T15:02:36.322Z,4.60
2023-08-18T15:07:43.546Z,3.90
2023-08-18T15:12:51.485Z,3.00
2023-08-18T15:17:58.693Z,3.30
2023-08-18T15:23:06.062Z,3.70
2023-08-18T15:28:13.244Z,3.70
2023-08-18T15:33:20.824Z,3.20
2023-08-18T15:38:27.961Z,3.60
2023-08-18T15:43:34.966Z,3.20
2023-08-18T15:48:42.064Z,3.40
2023-08-18T15:53:49.162Z,3.50
2023-08-18T15:58:56.361Z,3.80
2023-08-18T16:04:04.057Z,4.40
2023-08-18T16:09:11.286Z,5.80
2023-08-18T16:14:48.188Z,4.20
2023-08-18T16:19:45.535Z,4.70
2023-08-18T16:24:52.633Z,4.50
2023-08-18T16:30:00.160Z,5.10
2023-08-18T16:35:08.531Z,4.60
2023-08-18T16:40:15.937Z,4.80
2023-08-18T16:45:23.129Z,4.60
2023-08-18T16:50:30.165Z,5.80
2023-08-18T16:55:38.827Z,4.60
2023-08-18T17:00:46.913Z,4.40
2023-08-18T17:05:54.147Z,5.20
2023-08-18T17:11:01.793Z,6.10
2023-08-18T17:16:09.163Z,6.80
2023-08-18T17:21:16.418Z,6.00
2023-08-18T17:26:23.863Z,6.20
2023-08-18T17:31:31.126Z,5.40
2023-08-18T17:36:38.526Z,4.80
2023-08-18T17:41:45.576Z,4.60
2023-08-18T17:46:52.685Z,5.10
2023-08-18T17:51:59.849Z,5.30
2023-08-18T17:57:11.082Z,5.80
2023-08-18T18:02:19.815Z,6.00
2023-08-18T18:07:26.998Z,5.80
2023-08-18T18:12:34.159Z,5.20
2023-08-18T18:17:41.364Z,5.70
2023-08-18T18:22:48.840Z,6.10
2023-08-18T18:27:56.340Z,6.00
2023-08-18T18:33:03.721Z,5.70
2023-08-18T18:38:10.724Z,6.90
2023-08-18T18:43:17.882Z,6.80
2023-08-18T18:48:24.896Z,6.70
2023-08-18T18:58:37.598Z,6.50
2023-08-18T19:03:44.732Z,6.10
2023-08-18T19:13:57.470Z,6.80
2023-08-18T19:19:04.593Z,7.20
2023-08-18T19:29:17.754Z,6.70
2023-08-18T19:34:25.412Z,7.00
2023-08-18T19:39:34.253Z,7.70
2023-08-18T19:44:41.373Z,7.50
2023-08-18T19:49:49.861Z,7.20
2023-08-18T19:54:57.120Z,7.10
2023-08-18T20:00:07.376Z,7.90
2023-08-18T20:05:20.805Z,8.00
2023-08-18T20:10:30.497Z,7.70
2023-08-18T20:15:39.542Z,8.50
2023-08-18T20:20:48.007Z,7.80
2023-08-18T20:26:03.682Z,8.30
2023-08-18T20:31:11.375Z,8.40
2023-08-18T20:36:19.828Z,10.10
2023-08-18T20:41:27.010Z,9.70
2023-08-18T20:51:40.774Z,9.60
2023-08-18T21:01:53.567Z,9.60
2023-08-18T21:12:07.087Z,7.50
2023-08-18T21:17:14.090Z,8.10
2023-08-18T21:22:21.147Z,7.90
2023-08-18T21:27:28.256Z,8.20
2023-08-18T21:32:35.786Z,7.50
2023-08-18T21:37:43.394Z,6.70
2023-08-18T21:42:50.609Z,6.70
2023-08-18T21:53:03.594Z,7.10
2023-08-18T22:03:16.717Z,6.10
2023-08-18T22:13:29.395Z,6.80
2023-08-18T22:18:37.580Z,7.30
2023-08-18T22:23:45.118Z,6.60
2023-08-18T22:28:52.259Z,6.00
2023-08-18T22:33:59.407Z,7.70
2023-08-18T22:39:06.882Z,6.90
2023-08-18T22:44:14.033Z,7.00
2023-08-18T22:49:21.104Z,6.80
2023-08-18T22:54:28.343Z,6.40
2023-08-18T23:04:41.445Z,6.20
2023-08-18T23:14:54.317Z,6.70
2023-08-18T23:20:01.521Z,8.50
2023-08-18T23:25:10.408Z,7.60
2023-08-18T23:30:17.801Z,7.20
2023-08-18T23:35:27.403Z,7.50
2023-08-18T23:40:34.464Z,6.40
2023-08-18T23:45:41.529Z,6.60
2023-08-18T23:50:48.510Z,7.10
2023-08-18T23:55:55.579Z,7.10
